Pagrindinis puslapis
METAR-TAF:

METAR-TAF

Oro uostai :

Gran Kanarija, Ispanija

platuma: 27-56N, ilguma: 015-23W, Aukštis: 23 m

Dabartinis oras

Ataskaita buvo paskelbta 10 minutes, ne 02:30 UTC
Vėjas 19 kt iš Šiaurės/Šiaurės Rytų
Temperatūra 19°C
Drėgmė 78%
Slėgis 1026 hPa
Matomumas 10 km arba daugiau
Mažai debesys ne aukštis 2000 ft

METAR: GCLP 110230Z 02019KT 9999 FEW020 19/15 Q1026 NOSIG

Laikas: 02:40 (02:40 UTC)

Prognozė

Ataskaita buvo paskelbta 40 minutes, ne 02:00 UTC
Prognozė galioja nuo 11 metu 03 UTC su 12 metu 03 UTC
Vėjas 17 kt iš Šiaurės
Matomumas 10 km arba daugiau
Išsisklaidę debesys ne aukštis 3000 ft

TAF: GCLP 110200Z 1103/1203 01017KT 9999 SCT030 TX22/1114Z TN17/1106Z

Orai ataskaitas ir orų prognozės (METAR, TAF).

turimą stotys yra geltonos ir raudonos taškus žemėlapyje.

Perkelti pele per norėdami pamatyti stoties vardą.

Tada spustelėkite, norėdami matyti oro stebėjimo ir prognozės.

Norėdami pakeisti žemėlapį: spustelėkite ant žalios mygtukų su juodo kryžiaus žemyn,; žalią mygtuką su brūkšneliu, jei norite nutolinti; arba žalių rodyklių gretimoms žemėlapius.


METAR-TAF: